This is the latest recevied weather packets stored in our database for station/object EA3ANS-1. If no packets are shown the sender has not sent any weather packets the latest 1 day(s).
| Time | Temp. | Humidity | Pressure | Rain* | Wind** | Luminosity | Snow |
|---|---|---|---|---|---|---|---|
| 1778107364 | 13.33° C | - | 1013.5 hPa | 0 mm | 0 m/s | - | - |
| 1778106164 | 13.33° C | - | 1013.5 hPa | 0 mm | 0 m/s | - | - |
| 1778103763 | 14.44° C | - | 1013.4 hPa | 0 mm | 0 m/s | - | - |
| 1778102561 | 14.44° C | - | 1013.4 hPa | 0 mm | 0 m/s | - | - |
| 1778101962 | 15° C | - | 1013.3 hPa | 0 mm | 0 m/s | - | - |
| 1778101363 | 15° C | - | 1013.2 hPa | 0 mm | 0.89 m/s, 165° | - | - |
| 1778098362 | 15° C | - | 1012.6 hPa | 0 mm | 1.79 m/s, 58° | - | - |
| 1778097162 | 15.56° C | - | 1012.3 hPa | 0 mm | 0 m/s | - | - |
| 1778094762 | 16.67° C | - | 1011.6 hPa | 0 mm | 0.89 m/s, 84° | - | - |
| 1778091161 | 18.33° C | - | 1010.7 hPa | 0 mm | 3.13 m/s, 120° | - | - |
| 1778089965 | 19.44° C | - | 1010.3 hPa | 0 mm | 2.68 m/s, 145° | - | - |
| 1778088169 | 20.56° C | - | 1010.1 hPa | 0 mm | 0.89 m/s, 113° | - | - |
| 1778087565 | 19.44° C | - | 1010 hPa | 0 mm | 1.79 m/s, 128° | - | - |
| 1778084566 | 20.56° C | - | 1009.8 hPa | 0 mm | 3.13 m/s, 158° | - | - |
| 1778082769 | 21.67° C | - | 1009.6 hPa | 0 mm | 3.13 m/s, 138° | - | - |
| 1778082164 | 21.67° C | - | 1009.6 hPa | 0 mm | 3.13 m/s, 163° | - | - |
| 1778080965 | 22.78° C | - | 1009.7 hPa | 0 mm | 1.34 m/s, 134° | - | - |
| 1778078569 | 22.22° C | - | 1009.9 hPa | 0 mm | 0.89 m/s, 142° | - | - |
| 1778076764 | 22.22° C | - | 1010.3 hPa | 0 mm | 1.34 m/s, 283° | - | - |
| 1778075568 | 21.11° C | - | 1010.4 hPa | 0 mm | 1.79 m/s, 228° | - | - |
| 1778074365 | 20.56° C | - | 1010.7 hPa | 0 mm | 0.45 m/s, 222° | - | - |
| 1778071366 | 20.56° C | - | 1011 hPa | 0 mm | 4.02 m/s, 249° | - | - |
| 1778070165 | 21.67° C | - | 1011.2 hPa | 0 mm | 4.02 m/s, 215° | - | - |
| 1778068966 | 20° C | - | 1011.3 hPa | 0 mm | 2.24 m/s, 309° | - | - |
| 1778067173 | 20.56° C | - | 1011.4 hPa | 0 mm | 0.89 m/s, 197° | - | - |
* Rain latest hour (hover to see other rain measurements)
** Current wind speed in m/s (hover to see current wind gust speed)